Time;durP1;ratioP1;P1;durP2;ratioP2;P2;SDS_P1;SDS_P2;PMS_P1;PMS_P2;Temp;Humidity;BMP_temperature;BMP_pressure;BME280_temperature;BME280_humidity;BME280_pressure;Samples;Min_cycle;Max_cycle;Signal;HPM_P1;HPM_P2
2023/11/21 00:01:54;;;;;;;0.88;0.88;;;;;;;6.49;59.53;99277.25;4440218;32;20135;-92
2023/11/21 00:04:19;;;;;;;0.50;0.50;;;;;;;6.38;59.53;99270.56;4443072;32;20108;-91
2023/11/21 00:06:46;;;;;;;0.80;0.80;;;;;;;6.42;59.54;99274.81;4430411;32;20088;-92
2023/11/21 00:09:12;;;;;;;0.62;0.62;;;;;;;6.31;59.53;99279.34;4445920;32;20425;-93
2023/11/21 00:11:38;;;;;;;2.72;1.15;;;;;;;6.54;59.54;99275.41;4443028;32;20131;-93
2023/11/21 00:14:04;;;;;;;0.52;0.52;;;;;;;6.31;59.53;99271.59;4445700;32;20133;-94
2023/11/21 00:16:29;;;;;;;0.00;0.00;;;;;;;6.34;59.53;99268.09;4440619;32;20145;-93
2023/11/21 00:18:55;;;;;;;0.00;0.00;;;;;;;6.25;59.52;99269.16;4458508;32;20357;-92
2023/11/21 00:24:34;;;;;;;0.00;0.00;;;;;;;6.35;59.52;99268.06;4399913;32;20148;-92
2023/11/21 00:26:59;;;;;;;2.87;0.82;;;;;;;6.20;59.53;99289.09;4383138;32;20126;-93
2023/11/21 00:29:24;;;;;;;0.62;0.62;;;;;;;6.24;59.52;99287.28;4399974;32;20133;-93
2023/11/21 00:31:50;;;;;;;0.37;0.37;;;;;;;6.16;59.52;99290.06;4432066;32;20533;-93
2023/11/21 00:34:15;;;;;;;1.55;1.45;;;;;;;6.24;59.52;99289.88;4429186;32;20166;-94
2023/11/21 00:36:42;;;;;;;1.10;0.95;;;;;;;6.28;59.53;99294.94;4431432;32;20403;-93
2023/11/21 00:39:08;;;;;;;0.35;0.30;;;;;;;6.34;59.52;99297.38;4429635;32;20143;-93
2023/11/21 00:41:33;;;;;;;0.13;0.13;;;;;;;6.09;59.51;99304.81;4432276;32;20481;-93
2023/11/21 00:44:00;;;;;;;0.03;0.03;;;;;;;6.15;59.52;99309.88;4431928;32;20156;-93
2023/11/21 00:46:28;;;;;;;0.65;0.28;;;;;;;6.11;59.51;99310.78;4432296;32;20451;-94
2023/11/21 00:48:54;;;;;;;4.80;1.55;;;;;;;6.11;59.51;99317.69;4430112;32;20513;-93
2023/11/21 00:51:20;;;;;;;0.00;0.00;;;;;;;6.09;59.52;99314.28;4428274;32;20101;-93
2023/11/21 00:53:47;;;;;;;0.00;0.00;;;;;;;6.04;59.51;99313.53;4429694;32;20104;-93
2023/11/21 00:56:13;;;;;;;0.47;0.17;;;;;;;6.07;59.51;99310.88;4437321;32;20081;-95
2023/11/21 00:58:38;;;;;;;0.05;0.05;;;;;;;6.13;59.51;99303.00;4430222;32;20456;-93
2023/11/21 01:01:04;;;;;;;0.00;0.00;;;;;;;6.17;59.52;99299.50;4420866;32;20132;-93
2023/11/21 01:03:30;;;;;;;0.28;0.28;;;;;;;6.23;59.52;99296.78;4441952;32;20168;-92
2023/11/21 01:05:55;;;;;;;0.00;0.00;;;;;;;6.17;59.52;99296.06;4456620;32;20128;-92
2023/11/21 01:08:21;;;;;;;1.20;1.10;;;;;;;6.25;59.52;99297.59;4428620;32;20129;-92
2023/11/21 01:10:46;;;;;;;0.32;0.32;;;;;;;6.35;59.54;99299.06;4439131;32;20143;-93
2023/11/21 01:13:12;;;;;;;0.10;0.08;;;;;;;6.29;59.53;99282.84;4448615;32;20507;-93
2023/11/21 01:15:38;;;;;;;2.12;1.98;;;;;;;6.31;59.52;99289.69;4431594;32;20151;-94
2023/11/21 01:18:04;;;;;;;0.57;0.57;;;;;;;6.26;59.52;99277.75;4429741;32;20166;-93
2023/11/21 01:20:29;;;;;;;0.00;0.00;;;;;;;6.25;59.52;99276.06;4430738;32;20233;-93
2023/11/21 01:22:55;;;;;;;0.47;0.47;;;;;;;6.29;59.53;99275.97;4447880;31;20198;-95
2023/11/21 01:25:21;;;;;;;1.20;0.25;;;;;;;6.20;59.52;99272.75;4474673;32;20080;-93
2023/11/21 01:27:46;;;;;;;1.92;1.35;;;;;;;6.51;59.54;99271.16;4443238;32;20084;-94
2023/11/21 01:30:12;;;;;;;0.10;0.10;;;;;;;6.24;59.52;99277.81;4446639;32;20126;-95
2023/11/21 01:32:37;;;;;;;1.85;0.52;;;;;;;6.41;59.53;99277.44;4447968;32;20739;-94
2023/11/21 01:35:05;;;;;;;0.95;0.80;;;;;;;6.10;59.52;99272.91;4455564;32;20461;-94
2023/11/21 01:37:30;;;;;;;0.00;0.00;;;;;;;6.34;59.53;99274.12;4441546;32;20088;-94
2023/11/21 01:39:56;;;;;;;0.20;0.10;;;;;;;6.21;59.53;99274.44;4461290;32;20407;-93
2023/11/21 01:42:21;;;;;;;0.73;0.30;;;;;;;6.18;59.52;99272.78;4447538;32;20134;-94
2023/11/21 01:44:47;;;;;;;0.60;0.60;;;;;;;6.17;59.52;99270.22;4433372;32;20140;-94
2023/11/21 01:47:12;;;;;;;0.05;0.05;;;;;;;6.18;59.52;99275.34;4439514;32;20421;-95
2023/11/21 01:49:37;;;;;;;0.20;0.20;;;;;;;6.07;59.52;99257.47;4442261;32;20418;-94
2023/11/21 01:52:04;;;;;;;0.55;0.10;;;;;;;6.04;59.51;99262.72;4439315;32;20124;-93
2023/11/21 01:54:31;;;;;;;0.00;0.00;;;;;;;6.29;59.53;99252.69;4446548;32;20501;-93
2023/11/21 01:56:58;;;;;;;0.43;0.40;;;;;;;6.16;59.52;99248.69;4445211;32;20081;-94
2023/11/21 01:59:24;;;;;;;0.08;0.08;;;;;;;6.09;59.52;99255.72;4447172;32;20131;-94
2023/11/21 02:01:50;;;;;;;5.57;2.20;;;;;;;6.09;59.51;99247.13;4447348;32;20108;-94
2023/11/21 02:04:16;;;;;;;0.05;0.05;;;;;;;5.97;59.51;99243.06;4457690;32;20080;-94
2023/11/21 02:06:41;;;;;;;0.40;0.40;;;;;;;6.08;59.52;99240.25;4440560;32;20141;-92
2023/11/21 02:09:07;;;;;;;0.77;0.77;;;;;;;6.12;59.51;99239.28;4456004;32;20097;-91
2023/11/21 02:11:34;;;;;;;3.75;0.77;;;;;;;6.15;59.52;99240.09;4441140;32;20411;-91
2023/11/21 02:14:00;;;;;;;0.10;0.10;;;;;;;6.27;59.52;99235.53;4446879;32;20083;-93
2023/11/21 02:16:26;;;;;;;0.52;0.30;;;;;;;6.22;59.53;99234.78;4444523;32;20147;-90
2023/11/21 02:18:52;;;;;;;2.72;1.65;;;;;;;6.39;59.53;99240.44;4446279;32;20073;-93
2023/11/21 02:21:21;;;;;;;1.05;1.00;;;;;;;6.07;59.52;99241.13;4457248;32;20180;-93
2023/11/21 02:23:46;;;;;;;0.13;0.13;;;;;;;6.11;59.51;99233.28;4473283;32;20819;-92
2023/11/21 02:26:12;;;;;;;0.00;0.00;;;;;;;6.16;59.52;99233.19;4437615;32;20096;-92
2023/11/21 02:28:38;;;;;;;0.10;0.05;;;;;;;6.07;59.51;99223.03;4447981;32;20105;-91
2023/11/21 02:31:04;;;;;;;0.25;0.25;;;;;;;6.33;59.53;99219.88;4432593;32;20139;-93
2023/11/21 02:33:33;;;;;;;0.10;0.10;;;;;;;6.31;59.53;99217.31;4444619;32;20112;-92
2023/11/21 02:35:59;;;;;;;0.80;0.70;;;;;;;6.25;59.52;99214.88;4444995;32;20124;-93
2023/11/21 02:38:25;;;;;;;0.30;0.30;;;;;;;6.26;59.52;99220.91;4442246;32;20473;-92
2023/11/21 02:40:53;;;;;;;0.00;0.00;;;;;;;6.15;59.52;99218.53;4444711;32;20112;-93
2023/11/21 02:43:18;;;;;;;0.45;0.45;;;;;;;6.25;59.52;99217.47;4434108;32;20776;-93
2023/11/21 02:45:44;;;;;;;0.80;0.80;;;;;;;6.28;59.53;99212.22;4441868;32;20168;-92
2023/11/21 02:48:09;;;;;;;0.52;0.50;;;;;;;6.24;59.52;99222.69;4459882;32;20112;-90
2023/11/21 02:50:35;;;;;;;0.88;0.55;;;;;;;6.24;59.52;99217.50;4451155;32;20140;-91
2023/11/21 02:53:01;;;;;;;0.45;0.45;;;;;;;6.62;59.54;99220.00;4471828;32;20111;-91
2023/11/21 02:55:27;;;;;;;0.03;0.03;;;;;;;6.58;59.54;99207.19;4456364;32;20107;-90
2023/11/21 02:57:52;;;;;;;0.00;0.00;;;;;;;6.48;59.54;99211.75;4446360;32;20153;-92
2023/11/21 03:00:18;;;;;;;0.43;0.43;;;;;;;6.61;59.55;99207.13;4436178;32;20156;-91
2023/11/21 03:02:43;;;;;;;0.55;0.55;;;;;;;6.62;59.54;99196.75;4443787;32;20088;-92
2023/11/21 03:05:09;;;;;;;0.00;0.00;;;;;;;6.64;59.54;99212.25;4430642;32;20139;-91
2023/11/21 03:07:34;;;;;;;0.30;0.30;;;;;;;6.45;59.53;99202.34;4458847;32;20175;-93
2023/11/21 03:10:00;;;;;;;0.13;0.13;;;;;;;6.42;59.54;99194.66;4457289;32;20158;-93
2023/11/21 03:12:26;;;;;;;0.00;0.00;;;;;;;6.26;59.52;99188.16;4446263;32;20100;-93
2023/11/21 03:14:51;;;;;;;0.80;0.80;;;;;;;6.39;59.53;99191.31;4446097;32;20135;-92
2023/11/21 03:17:16;;;;;;;0.10;0.10;;;;;;;6.30;59.52;99191.50;4436542;32;20116;-92
2023/11/21 03:19:42;;;;;;;2.70;1.45;;;;;;;6.39;59.53;99193.91;4446527;32;20123;-92
2023/11/21 03:22:08;;;;;;;0.00;0.00;;;;;;;6.34;59.52;99187.97;4448927;32;20210;-94
2023/11/21 03:24:34;;;;;;;0.25;0.25;;;;;;;6.41;59.53;99180.03;4446874;32;20480;-94
2023/11/21 03:26:59;;;;;;;0.00;0.00;;;;;;;6.36;59.53;99175.84;4444035;32;20116;-92
2023/11/21 03:29:25;;;;;;;0.00;0.00;;;;;;;6.38;59.53;99172.34;4446003;32;20433;-91
2023/11/21 03:31:51;;;;;;;0.43;0.35;;;;;;;6.27;59.52;99171.75;4449408;32;20129;-92
2023/11/21 03:34:23;;;;;;;0.25;0.13;;;;;;;6.07;59.52;99161.88;4457240;32;20096;-92
2023/11/21 03:36:49;;;;;;;0.45;0.45;;;;;;;6.24;59.52;99161.50;4437012;32;20111;-92
2023/11/21 03:39:14;;;;;;;0.85;0.85;;;;;;;6.13;59.51;99155.72;4444484;32;20136;-92
2023/11/21 03:41:40;;;;;;;0.70;0.70;;;;;;;6.26;59.52;99151.12;4446458;32;20157;-93
2023/11/21 03:44:05;;;;;;;1.50;0.88;;;;;;;6.24;59.52;99151.16;4441411;32;20104;-92
2023/11/21 03:46:30;;;;;;;2.37;0.65;;;;;;;6.29;59.53;99153.63;4446689;32;20113;-93
2023/11/21 03:48:56;;;;;;;0.15;0.15;;;;;;;6.44;59.53;99164.47;4451296;32;20117;-93
2023/11/21 03:51:21;;;;;;;0.32;0.32;;;;;;;6.55;59.54;99173.66;4446512;32;20120;-94
2023/11/21 03:53:47;;;;;;;0.00;0.00;;;;;;;6.41;59.53;99168.84;4447488;32;20161;-94
2023/11/21 03:56:14;;;;;;;0.00;0.00;;;;;;;6.41;59.53;99177.47;4455976;32;20122;-92
2023/11/21 03:58:39;;;;;;;0.00;0.00;;;;;;;6.37;59.53;99175.81;4442961;32;20077;-93
2023/11/21 04:01:05;;;;;;;1.98;0.90;;;;;;;6.47;59.53;99174.72;4435462;32;20097;-92
2023/11/21 04:03:30;;;;;;;0.30;0.20;;;;;;;6.63;59.54;99179.53;4439905;32;20097;-92
2023/11/21 04:05:55;;;;;;;0.10;0.10;;;;;;;6.56;59.53;99183.13;4472733;32;20107;-90
2023/11/21 04:08:21;;;;;;;0.30;0.30;;;;;;;6.76;59.55;99180.88;4459783;32;20108;-91
2023/11/21 04:10:46;;;;;;;0.10;0.00;;;;;;;6.65;59.54;99180.31;4460161;32;20121;-94
2023/11/21 04:13:12;;;;;;;0.03;0.03;;;;;;;6.68;59.55;99186.28;4444847;32;20097;-94
2023/11/21 04:15:37;;;;;;;1.27;0.90;;;;;;;6.86;59.55;99186.66;4447119;32;20112;-91
2023/11/21 04:18:03;;;;;;;0.60;0.32;;;;;;;6.95;59.55;99187.28;4460784;32;20113;-92
2023/11/21 04:20:28;;;;;;;0.00;0.00;;;;;;;6.87;59.56;99197.00;4445255;32;20105;-93
2023/11/21 04:22:54;;;;;;;1.65;1.55;;;;;;;6.84;59.56;99186.69;4442271;32;20148;-92
2023/11/21 04:25:19;;;;;;;7.20;1.65;;;;;;;6.77;59.55;99195.53;4444877;32;20100;-91
2023/11/21 04:27:45;;;;;;;4.62;2.50;;;;;;;7.08;59.57;99195.56;4442283;32;20108;-93
2023/11/21 04:30:12;;;;;;;5.37;0.65;;;;;;;6.88;59.56;99195.25;4458384;32;20098;-92
2023/11/21 04:32:37;;;;;;;0.13;0.13;;;;;;;7.00;59.56;99193.19;4446031;32;20119;-92
2023/11/21 04:35:03;;;;;;;1.62;1.35;;;;;;;6.89;59.56;99186.59;4445372;32;20144;-92
2023/11/21 04:37:29;;;;;;;0.00;0.00;;;;;;;6.99;59.56;99193.22;4439201;32;20104;-93
2023/11/21 04:39:54;;;;;;;6.40;0.47;;;;;;;7.01;59.56;99200.06;4460270;32;20152;-93
2023/11/21 04:42:20;;;;;;;0.22;0.22;;;;;;;7.01;59.56;99201.78;4464671;32;20115;-91
2023/11/21 04:44:46;;;;;;;0.00;0.00;;;;;;;6.86;59.56;99207.34;4446387;32;20148;-93
2023/11/21 04:47:12;;;;;;;0.08;0.08;;;;;;;6.98;59.57;99215.66;4438562;32;20105;-94
2023/11/21 04:49:39;;;;;;;0.00;0.00;;;;;;;7.11;59.58;99221.38;4446437;32;20096;-93
2023/11/21 04:52:05;;;;;;;1.12;0.88;;;;;;;7.09;59.58;99218.81;4445855;32;20089;-93
2023/11/21 04:54:30;;;;;;;0.00;0.00;;;;;;;7.03;59.57;99221.56;4446735;32;20108;-93
2023/11/21 04:56:56;;;;;;;0.10;0.10;;;;;;;6.99;59.57;99225.13;4445668;32;20165;-93
2023/11/21 04:59:37;;;;;;;0.32;0.32;;;;;;;7.16;59.57;99226.44;4447354;32;20146;-93
2023/11/21 05:02:05;;;;;;;0.70;0.52;;;;;;;7.22;59.58;99229.69;4468845;32;20088;-95
2023/11/21 05:04:51;;;;;;;0.10;0.10;;;;;;;7.20;59.57;99231.50;4460714;32;20159;-94
2023/11/21 05:07:16;;;;;;;0.75;0.52;;;;;;;7.34;59.58;99238.91;4446513;32;20820;-94
2023/11/21 05:09:46;;;;;;;0.95;0.93;;;;;;;7.20;59.58;99230.63;4440546;32;20089;-93
2023/11/21 05:12:12;;;;;;;0.10;0.10;;;;;;;7.23;59.58;99233.13;4455585;32;20093;-94
2023/11/21 05:14:37;;;;;;;0.20;0.20;;;;;;;7.08;59.56;99232.63;4448559;32;20169;-96
2023/11/21 05:17:04;;;;;;;0.20;0.13;;;;;;;7.23;59.57;99222.78;4445197;32;20938;-92
2023/11/21 05:19:29;;;;;;;0.20;0.20;;;;;;;7.07;59.57;99227.50;4441085;32;20424;-93
2023/11/21 05:21:55;;;;;;;0.10;0.10;;;;;;;7.15;59.57;99223.00;4434653;32;20093;-93
2023/11/21 05:24:21;;;;;;;0.00;0.00;;;;;;;7.36;59.59;99219.00;4450271;32;20160;-93
2023/11/21 05:26:49;;;;;;;0.00;0.00;;;;;;;7.25;59.59;99221.00;4445720;32;20169;-93
2023/11/21 05:29:14;;;;;;;0.35;0.35;;;;;;;7.32;59.58;99228.56;4461108;32;20155;-94
2023/11/21 05:31:40;;;;;;;0.00;0.00;;;;;;;7.49;59.60;99232.44;4445229;32;20112;-94
2023/11/21 05:34:06;;;;;;;1.30;1.20;;;;;;;7.56;59.60;99227.03;4447485;32;20145;-94
2023/11/21 05:36:31;;;;;;;0.00;0.00;;;;;;;7.48;59.60;99218.63;4445820;32;20104;-95
2023/11/21 05:38:56;;;;;;;0.00;0.00;;;;;;;7.47;59.59;99213.50;4433521;32;20144;-96
2023/11/21 05:41:23;;;;;;;0.35;0.30;;;;;;;7.39;59.58;99214.56;4434574;32;20176;-95
2023/11/21 05:43:48;;;;;;;0.00;0.00;;;;;;;7.46;59.59;99212.66;4448606;32;20196;-93
2023/11/21 05:46:14;;;;;;;0.08;0.08;;;;;;;7.78;59.61;99216.06;4437722;32;20088;-95
2023/11/21 05:48:43;;;;;;;0.13;0.13;;;;;;;7.47;59.58;99231.63;4448442;32;20130;-94
2023/11/21 05:51:08;;;;;;;0.00;0.00;;;;;;;7.60;59.60;99236.44;4448182;32;20122;-93
2023/11/21 05:53:34;;;;;;;0.00;0.00;;;;;;;7.51;59.59;99236.66;4448082;32;20148;-95
2023/11/21 05:56:00;;;;;;;0.05;0.05;;;;;;;7.47;59.58;99236.81;4446124;32;20131;-95
2023/11/21 05:58:25;;;;;;;0.20;0.20;;;;;;;7.50;59.60;99236.72;4441315;32;20111;-95
2023/11/21 06:00:51;;;;;;;2.08;0.77;;;;;;;7.61;59.61;99245.91;4448096;32;20108;-95
2023/11/21 06:03:17;;;;;;;1.20;1.10;;;;;;;7.73;59.60;99246.44;4451401;32;20128;-94
2023/11/21 06:05:42;;;;;;;0.25;0.25;;;;;;;7.66;59.60;99245.75;4445715;32;20774;-94
2023/11/21 06:08:08;;;;;;;0.85;0.85;;;;;;;7.62;59.59;99247.59;4444915;32;20461;-94
2023/11/21 06:10:34;;;;;;;0.00;0.00;;;;;;;7.67;59.60;99255.22;4443586;32;20106;-94
2023/11/21 06:12:59;;;;;;;0.00;0.00;;;;;;;7.71;59.60;99262.03;4438397;32;20130;-94
2023/11/21 06:15:24;;;;;;;0.75;0.75;;;;;;;7.67;59.60;99265.59;4458096;32;20119;-95
2023/11/21 06:17:52;;;;;;;0.05;0.05;;;;;;;7.68;59.60;99265.56;4447267;32;21723;-95
2023/11/21 06:20:18;;;;;;;0.00;0.00;;;;;;;7.83;59.61;99268.63;4435251;32;20666;-94
2023/11/21 06:22:44;;;;;;;0.00;0.00;;;;;;;8.01;59.62;99276.69;4440972;32;20138;-94
2023/11/21 06:25:12;;;;;;;2.87;0.40;;;;;;;7.89;59.61;99287.41;4447477;32;20073;-95
2023/11/21 06:27:39;;;;;;;0.10;0.10;;;;;;;8.15;59.63;99294.44;4452122;32;20085;-95
2023/11/21 06:30:06;;;;;;;1.92;0.85;;;;;;;8.37;59.64;99296.44;4437286;32;20115;-95
2023/11/21 06:32:31;;;;;;;0.30;0.30;;;;;;;8.34;59.64;99299.97;4449054;32;20092;-95
2023/11/21 06:34:59;;;;;;;2.30;1.77;;;;;;;8.27;59.63;99298.41;4440798;32;22745;-94
2023/11/21 06:37:26;;;;;;;0.80;0.80;;;;;;;7.98;59.61;99307.87;4468937;32;20114;-96
2023/11/21 06:39:52;;;;;;;0.10;0.10;;;;;;;8.06;59.62;99315.44;4445575;32;20049;-95
2023/11/21 06:42:19;;;;;;;0.32;0.32;;;;;;;8.16;59.63;99310.84;4448188;32;20437;-95
2023/11/21 06:44:45;;;;;;;0.05;0.05;;;;;;;8.23;59.63;99312.34;4445602;32;20225;-96
2023/11/21 06:47:10;;;;;;;0.10;0.10;;;;;;;8.38;59.64;99311.94;4442356;32;20445;-95
2023/11/21 06:49:36;;;;;;;1.20;0.75;;;;;;;8.54;59.65;99312.34;4447750;32;20116;-96
2023/11/21 06:52:03;;;;;;;0.20;0.20;;;;;;;8.74;59.65;99314.28;4438393;32;20112;-96
2023/11/21 06:54:29;;;;;;;0.00;0.00;;;;;;;8.70;59.66;99312.69;4447188;32;20105;-96
2023/11/21 06:56:56;;;;;;;0.40;0.40;;;;;;;8.74;59.66;99315.13;4445280;32;20176;-96
2023/11/21 06:59:21;;;;;;;0.00;0.00;;;;;;;8.72;59.66;99311.72;4437214;32;20134;-96
2023/11/21 07:01:47;;;;;;;0.30;0.30;;;;;;;9.03;59.67;99310.78;4445079;32;20139;-95
2023/11/21 07:04:13;;;;;;;0.15;0.15;;;;;;;9.28;59.69;99303.88;4441872;32;20101;-96
2023/11/21 07:06:38;;;;;;;3.10;0.30;;;;;;;9.32;59.69;99310.66;4453682;32;20111;-96
2023/11/21 07:09:04;;;;;;;0.17;0.03;;;;;;;9.41;59.69;99312.06;4459309;32;20092;-96
2023/11/21 07:11:29;;;;;;;0.17;0.10;;;;;;;9.35;59.70;99314.87;4446444;32;20124;-94
2023/11/21 07:13:55;;;;;;;0.65;0.43;;;;;;;9.44;59.70;99315.41;4455219;32;20165;-96
2023/11/21 07:16:20;;;;;;;0.93;0.93;;;;;;;9.49;59.71;99310.94;4459229;32;20524;-96
2023/11/21 07:18:46;;;;;;;1.10;0.90;;;;;;;9.50;59.70;99315.22;4454169;32;20132;-96
2023/11/21 07:21:12;;;;;;;0.00;0.00;;;;;;;9.61;59.71;99314.00;4446273;32;20123;-96
2023/11/21 07:23:38;;;;;;;0.35;0.35;;;;;;;9.47;59.70;99317.94;4446263;32;20112;-95
2023/11/21 07:26:08;;;;;;;1.30;0.60;;;;;;;9.41;59.70;99319.88;4472548;32;20106;-96
2023/11/21 07:28:34;;;;;;;0.65;0.65;;;;;;;9.37;59.70;99331.28;4442500;32;20740;-96
2023/11/21 07:31:00;;;;;;;0.40;0.32;;;;;;;9.38;59.69;99328.63;4437744;32;20120;-96
2023/11/21 07:33:25;;;;;;;0.13;0.08;;;;;;;9.36;59.70;99314.84;4443201;32;20136;-96
2023/11/21 07:35:51;;;;;;;0.25;0.10;;;;;;;9.63;59.71;99317.38;4451309;32;20186;-96
2023/11/21 07:38:18;;;;;;;2.45;0.25;;;;;;;9.43;59.70;99316.31;4446550;32;20105;-95
2023/11/21 07:40:43;;;;;;;0.20;0.20;;;;;;;9.56;59.70;99318.50;4443704;32;20739;-95
2023/11/21 07:43:10;;;;;;;0.62;0.57;;;;;;;9.43;59.70;99321.50;4445280;32;20139;-92
2023/11/21 07:45:36;;;;;;;1.20;0.70;;;;;;;9.46;59.70;99316.22;4443502;32;20101;-92
2023/11/21 07:48:03;;;;;;;0.40;0.30;;;;;;;9.49;59.70;99318.72;4444675;32;20145;-96
2023/11/21 07:50:28;;;;;;;0.30;0.30;;;;;;;9.50;59.70;99320.41;4443795;32;20112;-96
2023/11/21 07:52:54;;;;;;;0.00;0.00;;;;;;;9.58;59.71;99325.34;4445026;32;20142;-92
2023/11/21 07:55:19;;;;;;;0.55;0.55;;;;;;;9.71;59.71;99317.97;4443309;32;20153;-93
2023/11/21 07:57:45;;;;;;;0.00;0.00;;;;;;;9.91;59.72;99317.25;4444988;32;20112;-93
2023/11/21 08:00:12;;;;;;;0.00;0.00;;;;;;;9.89;59.72;99319.06;4443358;32;20155;-95
2023/11/21 08:02:45;;;;;;;4.95;1.10;;;;;;;9.96;59.73;99316.19;4455058;32;20097;-96
2023/11/21 08:05:11;;;;;;;0.13;0.13;;;;;;;9.96;59.73;99315.34;4447064;32;20101;-96
2023/11/21 08:07:37;;;;;;;1.40;1.30;;;;;;;9.83;59.72;99314.94;4445847;32;20065;-95
2023/11/21 08:10:04;;;;;;;0.08;0.08;;;;;;;10.00;59.73;99311.72;4442569;32;20174;-95
2023/11/21 08:12:30;;;;;;;4.47;2.30;;;;;;;9.98;59.73;99321.34;4446470;32;20174;-96
2023/11/21 08:14:58;;;;;;;15.95;0.98;;;;;;;10.20;59.75;99318.78;4455345;32;20085;-95
2023/11/21 08:17:23;;;;;;;1.45;1.08;;;;;;;10.14;59.73;99317.25;4445386;32;20107;-93
2023/11/21 08:19:51;;;;;;;0.10;0.10;;;;;;;10.08;59.73;99315.72;4458528;32;20144;-94
2023/11/21 08:22:17;;;;;;;0.50;0.50;;;;;;;10.11;59.74;99314.75;4448938;32;20524;-95
2023/11/21 08:24:43;;;;;;;0.00;0.00;;;;;;;10.14;59.73;99312.91;4441026;32;20144;-93
2023/11/21 08:27:09;;;;;;;0.43;0.43;;;;;;;10.00;59.73;99299.56;4458820;32;20457;-94
2023/11/21 08:29:36;;;;;;;0.50;0.50;;;;;;;9.82;59.72;99298.47;4443291;32;20168;-95
2023/11/21 08:32:02;;;;;;;0.77;0.62;;;;;;;9.87;59.73;99298.31;4438723;32;20100;-94
2023/11/21 08:34:28;;;;;;;0.22;0.22;;;;;;;10.10;59.74;99298.31;4444445;32;20080;-92
2023/11/21 08:36:53;;;;;;;0.95;0.95;;;;;;;10.21;59.74;99294.50;4463621;32;20089;-95
2023/11/21 08:39:19;;;;;;;0.08;0.08;;;;;;;10.24;59.75;99290.03;4443151;32;20177;-94
2023/11/21 08:41:44;;;;;;;0.00;0.00;;;;;;;10.22;59.73;99293.59;4440921;32;20124;-95
2023/11/21 08:44:10;;;;;;;0.73;0.52;;;;;;;10.29;59.74;99292.47;4445212;32;20112;-95
2023/11/21 08:46:36;;;;;;;0.93;0.88;;;;;;;10.26;59.75;99293.44;4440361;32;20107;-95
2023/11/21 08:49:02;;;;;;;0.37;0.37;;;;;;;10.40;59.75;99295.47;4447897;32;20391;-93
2023/11/21 08:51:27;;;;;;;9.32;2.62;;;;;;;10.50;59.76;99296.00;4461106;32;20151;-94
2023/11/21 08:53:53;;;;;;;1.23;0.73;;;;;;;10.48;59.76;99290.84;4447848;32;20395;-95
2023/11/21 08:56:20;;;;;;;3.30;2.40;;;;;;;10.66;59.77;99297.94;4461811;32;20163;-95
2023/11/21 08:58:46;;;;;;;1.00;1.00;;;;;;;10.56;59.76;99308.75;4446193;32;20099;-95
2023/11/21 09:01:12;;;;;;;1.65;0.90;;;;;;;10.65;59.76;99305.81;4435801;32;20204;-96
2023/11/21 09:03:38;;;;;;;0.65;0.47;;;;;;;10.59;59.76;99312.09;4448188;32;20494;-95
2023/11/21 09:06:04;;;;;;;0.98;0.93;;;;;;;10.58;59.76;99314.75;4447877;32;24986;-95
2023/11/21 09:08:29;;;;;;;1.27;1.17;;;;;;;10.67;59.76;99304.84;4454338;32;20782;-94
2023/11/21 09:10:55;;;;;;;0.17;0.17;;;;;;;10.68;59.77;99311.75;4461432;32;20089;-95
2023/11/21 09:13:24;;;;;;;0.47;0.47;;;;;;;10.71;59.77;99316.81;4443379;32;20112;-95
2023/11/21 09:15:49;;;;;;;0.63;0.63;;;;;;;10.49;59.76;99313.38;4446919;32;20736;-95
2023/11/21 09:18:15;;;;;;;0.20;0.20;;;;;;;10.49;59.76;99312.50;4443811;32;20128;-96
2023/11/21 09:20:43;;;;;;;1.70;1.27;;;;;;;10.59;59.76;99309.47;4445977;32;20164;-95
2023/11/21 09:23:09;;;;;;;0.25;0.20;;;;;;;10.74;59.77;99298.47;4441931;32;20159;-94
2023/11/21 09:25:34;;;;;;;0.77;0.40;;;;;;;10.88;59.78;99294.47;4442691;32;20116;-96
2023/11/21 09:28:00;;;;;;;0.52;0.52;;;;;;;10.95;59.78;99295.94;4457025;32;20172;-96
2023/11/21 09:30:25;;;;;;;0.20;0.20;;;;;;;10.93;59.78;99284.72;4448667;32;20237;-95
2023/11/21 09:32:51;;;;;;;0.30;0.30;;;;;;;11.01;59.79;99282.66;4445072;32;20144;-96
2023/11/21 09:35:17;;;;;;;0.17;0.17;;;;;;;11.10;59.79;99286.63;4450898;32;20088;-94
2023/11/21 09:37:46;;;;;;;0.00;0.00;;;;;;;11.19;59.79;99275.84;4450886;32;20072;-96
2023/11/21 09:40:13;;;;;;;0.10;0.10;;;;;;;11.27;59.80;99274.59;4448201;32;20094;-95
2023/11/21 09:42:41;;;;;;;1.85;1.75;;;;;;;11.25;59.80;99271.19;4446657;32;20158;-95
2023/11/21 09:45:25;;;;;;;1.33;1.30;;;;;;;11.34;59.80;99260.38;4447434;32;20108;-95
2023/11/21 09:47:50;;;;;;;1.52;1.08;;;;;;;11.34;59.80;99256.94;4444939;32;20109;-96
2023/11/21 09:50:17;;;;;;;5.40;0.75;;;;;;;11.51;59.81;99256.19;4439920;32;20120;-95
2023/11/21 09:53:20;;;;;;;0.05;0.05;;;;;;;11.85;59.83;99259.06;4446763;32;20109;-95
2023/11/21 09:55:52;;;;;;;0.50;0.50;;;;;;;11.91;59.84;99252.72;4459410;32;20509;-95
2023/11/21 09:58:19;;;;;;;1.02;0.50;;;;;;;11.71;59.83;99257.94;4444907;32;20117;-96
2023/11/21 10:00:45;;;;;;;0.00;0.00;;;;;;;11.61;59.82;99260.97;4444579;32;20154;-95
2023/11/21 10:03:11;;;;;;;1.45;1.25;;;;;;;11.73;59.82;99249.13;4446913;32;20833;-96
2023/11/21 10:05:37;;;;;;;5.37;2.55;;;;;;;11.79;59.83;99240.22;4447113;32;20096;-95
2023/11/21 10:08:09;;;;;;;1.73;0.57;;;;;;;11.58;59.82;99242.81;4444716;32;20144;-95
2023/11/21 10:10:45;;;;;;;0.70;0.52;;;;;;;11.74;59.82;99242.16;4442733;32;20135;-95
2023/11/21 10:13:12;;;;;;;0.50;0.40;;;;;;;11.72;59.83;99239.63;4451227;32;20185;-96
2023/11/21 10:15:37;;;;;;;8.18;1.65;;;;;;;11.91;59.84;99239.69;4447146;32;20115;-95
2023/11/21 10:18:04;;;;;;;3.53;1.55;;;;;;;11.76;59.83;99233.34;4447347;32;20144;-95
2023/11/21 10:20:30;;;;;;;0.45;0.45;;;;;;;11.60;59.83;99227.16;4455607;32;20903;-95
2023/11/21 10:22:56;;;;;;;0.80;0.73;;;;;;;11.76;59.83;99235.09;4431534;32;20096;-96
2023/11/21 10:25:22;;;;;;;1.87;1.15;;;;;;;11.86;59.83;99231.22;4443985;32;20752;-94
2023/11/21 10:27:50;;;;;;;0.52;0.52;;;;;;;11.98;59.84;99228.03;4441514;32;20136;-96
2023/11/21 10:30:15;;;;;;;0.32;0.32;;;;;;;11.96;59.83;99235.94;4442234;32;20109;-96
2023/11/21 10:32:42;;;;;;;0.70;0.60;;;;;;;11.93;59.83;99233.47;4431536;32;20147;-96
2023/11/21 10:35:10;;;;;;;0.22;0.22;;;;;;;12.04;59.84;99232.97;4448035;32;20734;-94
2023/11/21 10:37:44;;;;;;;0.75;0.75;;;;;;;12.05;59.84;99225.97;4466782;32;20105;-94
2023/11/21 10:40:13;;;;;;;0.05;0.05;;;;;;;12.07;59.84;99227.62;4447878;32;20081;-96
2023/11/21 10:42:39;;;;;;;1.12;0.52;;;;;;;12.01;59.84;99227.03;4460000;32;20091;-95
2023/11/21 10:45:11;;;;;;;1.45;1.25;;;;;;;12.22;59.85;99228.66;4444081;32;20149;-95
2023/11/21 10:47:38;;;;;;;0.00;0.00;;;;;;;12.31;59.86;99232.63;4443605;32;20147;-96
2023/11/21 10:50:04;;;;;;;0.40;0.40;;;;;;;12.38;59.86;99232.25;4448962;32;20131;-96
2023/11/21 10:52:30;;;;;;;0.00;0.00;;;;;;;12.38;59.86;99228.78;4443867;32;20147;-94
2023/11/21 10:54:58;;;;;;;0.62;0.62;;;;;;;12.40;59.86;99230.41;4444165;32;20096;-95
2023/11/21 10:57:24;;;;;;;0.45;0.37;;;;;;;12.65;59.87;99237.06;4442704;32;20161;-96
2023/11/21 10:59:49;;;;;;;0.40;0.40;;;;;;;12.59;59.87;99228.63;4446564;32;20125;-96
2023/11/21 11:02:24;;;;;;;1.08;0.98;;;;;;;12.63;59.87;99224.09;4446047;32;20119;-96
2023/11/21 11:04:50;;;;;;;2.50;1.95;;;;;;;12.88;59.88;99215.87;4446580;32;20060;-95
2023/11/21 11:07:16;;;;;;;1.05;1.00;;;;;;;12.85;59.88;99219.50;4446128;32;20526;-95
2023/11/21 11:09:41;;;;;;;1.95;1.15;;;;;;;12.80;59.88;99221.50;4456971;32;20410;-96
2023/11/21 11:12:07;;;;;;;7.00;1.37;;;;;;;12.83;59.89;99215.28;4441234;32;20134;-95
2023/11/21 11:14:32;;;;;;;2.28;1.23;;;;;;;12.86;59.88;99217.72;4438867;32;20104;-96
2023/11/21 11:16:59;;;;;;;1.27;0.75;;;;;;;12.83;59.88;99217.88;4443776;32;20181;-95
2023/11/21 11:19:24;;;;;;;0.30;0.28;;;;;;;12.82;59.89;99213.59;4429360;32;232628;-96
2023/11/21 11:21:53;;;;;;;0.10;0.10;;;;;;;12.97;59.89;99220.62;4449691;32;20122;-95
2023/11/21 11:24:42;;;;;;;0.00;0.00;;;;;;;13.14;59.90;99210.19;4462387;32;20100;-95
2023/11/21 11:27:36;;;;;;;0.10;0.10;;;;;;;13.34;59.90;99219.66;4449706;32;20177;-96
2023/11/21 11:30:38;;;;;;;1.75;0.80;;;;;;;13.23;59.90;99221.97;4456613;32;20112;-95
2023/11/21 11:33:39;;;;;;;0.08;0.08;;;;;;;13.20;59.91;99207.28;4457650;32;20109;-95
2023/11/21 11:36:22;;;;;;;0.45;0.45;;;;;;;13.33;59.91;99204.91;4444463;32;20081;-94
2023/11/21 11:38:50;;;;;;;1.65;1.17;;;;;;;13.39;59.91;99204.56;4446404;32;20112;-96
2023/11/21 11:41:36;;;;;;;0.95;0.52;;;;;;;13.49;59.93;99202.34;4454519;32;20065;-96